sensor_id;sensor_type;location;lat;lon;timestamp;pressure;altitude;pressure_sealevel;temperature;humidity
1832;BME280;1680;48.106;11.708;2023-02-27T00:00:48;95672.97;;;-0.30;100.00
1832;BME280;1680;48.106;11.708;2023-02-27T00:03:16;95677.72;;;-0.43;100.00
1832;BME280;1680;48.106;11.708;2023-02-27T00:05:43;95680.56;;;-0.54;100.00
1832;BME280;1680;48.106;11.708;2023-02-27T00:08:11;95676.22;;;-0.54;100.00
1832;BME280;1680;48.106;11.708;2023-02-27T00:10:38;95683.69;;;-0.68;100.00
1832;BME280;1680;48.106;11.708;2023-02-27T00:13:07;95685.16;;;-0.66;100.00
1832;BME280;1680;48.106;11.708;2023-02-27T00:15:35;95685.91;;;-0.73;100.00
1832;BME280;1680;48.106;11.708;2023-02-27T00:18:05;95683.06;;;-0.62;100.00
1832;BME280;1680;48.106;11.708;2023-02-27T00:20:32;95666.56;;;-0.77;100.00
1832;BME280;1680;48.106;11.708;2023-02-27T00:23:03;95683.56;;;-0.59;100.00
1832;BME280;1680;48.106;11.708;2023-02-27T00:25:31;95688.09;;;-0.61;100.00
1832;BME280;1680;48.106;11.708;2023-02-27T00:27:58;95661.47;;;-0.69;100.00
1832;BME280;1680;48.106;11.708;2023-02-27T00:30:27;95678.72;;;-0.36;100.00
1832;BME280;1680;48.106;11.708;2023-02-27T00:32:54;95684.50;;;-0.42;100.00
1832;BME280;1680;48.106;11.708;2023-02-27T00:35:22;95684.19;;;-0.39;100.00
1832;BME280;1680;48.106;11.708;2023-02-27T00:37:50;95699.66;;;-0.39;100.00
1832;BME280;1680;48.106;11.708;2023-02-27T00:40:18;95687.72;;;-0.40;100.00
1832;BME280;1680;48.106;11.708;2023-02-27T00:42:46;95686.41;;;-0.44;100.00
1832;BME280;1680;48.106;11.708;2023-02-27T00:45:14;95681.19;;;-0.52;100.00
1832;BME280;1680;48.106;11.708;2023-02-27T00:47:42;95688.31;;;-0.46;100.00
1832;BME280;1680;48.106;11.708;2023-02-27T00:50:10;95689.25;;;-0.55;100.00
1832;BME280;1680;48.106;11.708;2023-02-27T00:52:39;95690.03;;;-0.55;100.00
1832;BME280;1680;48.106;11.708;2023-02-27T00:55:07;95673.53;;;-0.70;100.00
1832;BME280;1680;48.106;11.708;2023-02-27T00:57:35;95686.88;;;-0.49;100.00
1832;BME280;1680;48.106;11.708;2023-02-27T01:00:04;95673.22;;;-0.67;100.00
1832;BME280;1680;48.106;11.708;2023-02-27T01:02:32;95666.63;;;-0.69;100.00
1832;BME280;1680;48.106;11.708;2023-02-27T01:05:01;95692.69;;;-0.47;100.00
1832;BME280;1680;48.106;11.708;2023-02-27T01:07:28;95687.00;;;-0.50;100.00
1832;BME280;1680;48.106;11.708;2023-02-27T01:09:55;95687.97;;;-0.51;100.00
1832;BME280;1680;48.106;11.708;2023-02-27T01:12:23;95685.50;;;-0.61;100.00
1832;BME280;1680;48.106;11.708;2023-02-27T01:14:51;95697.75;;;-0.55;100.00
1832;BME280;1680;48.106;11.708;2023-02-27T01:17:18;95687.94;;;-0.59;100.00
1832;BME280;1680;48.106;11.708;2023-02-27T01:19:45;95687.72;;;-0.66;100.00
1832;BME280;1680;48.106;11.708;2023-02-27T01:22:14;95692.41;;;-0.61;100.00
1832;BME280;1680;48.106;11.708;2023-02-27T01:24:41;95692.63;;;-0.55;100.00
1832;BME280;1680;48.106;11.708;2023-02-27T01:27:08;95680.88;;;-0.57;100.00
1832;BME280;1680;48.106;11.708;2023-02-27T01:29:36;95680.69;;;-0.56;100.00
1832;BME280;1680;48.106;11.708;2023-02-27T01:32:03;95682.66;;;-0.75;100.00
1832;BME280;1680;48.106;11.708;2023-02-27T01:34:31;95681.03;;;-0.76;100.00
1832;BME280;1680;48.106;11.708;2023-02-27T01:36:58;95679.13;;;-0.74;100.00
1832;BME280;1680;48.106;11.708;2023-02-27T01:39:27;95686.19;;;-0.76;100.00
1832;BME280;1680;48.106;11.708;2023-02-27T01:41:54;95694.56;;;-0.74;100.00
1832;BME280;1680;48.106;11.708;2023-02-27T01:44:24;95682.88;;;-0.69;100.00
1832;BME280;1680;48.106;11.708;2023-02-27T01:46:53;95683.03;;;-0.70;100.00
1832;BME280;1680;48.106;11.708;2023-02-27T01:49:24;95676.94;;;-0.69;100.00
1832;BME280;1680;48.106;11.708;2023-02-27T01:51:55;95663.28;;;-0.87;100.00
1832;BME280;1680;48.106;11.708;2023-02-27T01:54:30;95675.91;;;-0.76;100.00
1832;BME280;1680;48.106;11.708;2023-02-27T01:56:59;95681.31;;;-0.62;100.00
1832;BME280;1680;48.106;11.708;2023-02-27T01:59:31;95687.22;;;-0.69;100.00
1832;BME280;1680;48.106;11.708;2023-02-27T02:02:00;95692.25;;;-0.60;100.00
1832;BME280;1680;48.106;11.708;2023-02-27T02:04:32;95699.72;;;-0.74;100.00
1832;BME280;1680;48.106;11.708;2023-02-27T02:07:03;95698.28;;;-0.94;100.00
1832;BME280;1680;48.106;11.708;2023-02-27T02:09:36;95699.09;;;-0.94;100.00
1832;BME280;1680;48.106;11.708;2023-02-27T02:12:05;95696.22;;;-0.91;100.00
1832;BME280;1680;48.106;11.708;2023-02-27T02:14:32;95689.34;;;-0.82;100.00
1832;BME280;1680;48.106;11.708;2023-02-27T02:17:10;95701.13;;;-0.80;100.00
1832;BME280;1680;48.106;11.708;2023-02-27T02:20:23;95690.94;;;-0.89;100.00
1832;BME280;1680;48.106;11.708;2023-02-27T02:29:31;95686.56;;;-0.89;100.00
1832;BME280;1680;48.106;11.708;2023-02-27T02:38:39;95682.84;;;-0.94;100.00
1832;BME280;1680;48.106;11.708;2023-02-27T02:41:14;95691.38;;;-0.94;100.00
1832;BME280;1680;48.106;11.708;2023-02-27T02:43:55;95693.13;;;-0.94;100.00
1832;BME280;1680;48.106;11.708;2023-02-27T02:46:31;95691.84;;;-0.98;100.00
1832;BME280;1680;48.106;11.708;2023-02-27T02:49:04;95702.41;;;-1.01;100.00
1832;BME280;1680;48.106;11.708;2023-02-27T02:51:39;95695.50;;;-1.00;100.00
1832;BME280;1680;48.106;11.708;2023-02-27T02:54:14;95695.94;;;-1.05;100.00
1832;BME280;1680;48.106;11.708;2023-02-27T02:56:47;95693.94;;;-1.11;100.00
1832;BME280;1680;48.106;11.708;2023-02-27T02:59:21;95694.09;;;-0.95;100.00
1832;BME280;1680;48.106;11.708;2023-02-27T03:01:52;95694.03;;;-1.03;100.00
1832;BME280;1680;48.106;11.708;2023-02-27T03:04:29;95692.63;;;-0.98;100.00
1832;BME280;1680;48.106;11.708;2023-02-27T03:07:01;95696.31;;;-1.00;100.00
1832;BME280;1680;48.106;11.708;2023-02-27T03:09:34;95686.56;;;-0.89;100.00
1832;BME280;1680;48.106;11.708;2023-02-27T03:12:07;95692.13;;;-1.01;100.00
1832;BME280;1680;48.106;11.708;2023-02-27T03:14:39;95692.75;;;-0.82;100.00
1832;BME280;1680;48.106;11.708;2023-02-27T03:17:13;95693.94;;;-0.94;100.00
1832;BME280;1680;48.106;11.708;2023-02-27T03:19:43;95685.28;;;-0.93;100.00
1832;BME280;1680;48.106;11.708;2023-02-27T03:22:17;95690.25;;;-0.91;100.00
1832;BME280;1680;48.106;11.708;2023-02-27T03:24:49;95692.84;;;-0.91;100.00
1832;BME280;1680;48.106;11.708;2023-02-27T03:27:18;95694.81;;;-0.85;100.00
1832;BME280;1680;48.106;11.708;2023-02-27T03:29:49;95703.41;;;-0.77;100.00
1832;BME280;1680;48.106;11.708;2023-02-27T03:32:22;95706.56;;;-0.83;100.00
1832;BME280;1680;48.106;11.708;2023-02-27T03:34:50;95700.53;;;-0.74;100.00
1832;BME280;1680;48.106;11.708;2023-02-27T03:37:26;95696.91;;;-0.63;100.00
1832;BME280;1680;48.106;11.708;2023-02-27T03:39:59;95698.16;;;-0.67;100.00
1832;BME280;1680;48.106;11.708;2023-02-27T03:42:35;95702.97;;;-0.72;100.00
1832;BME280;1680;48.106;11.708;2023-02-27T03:45:07;95705.88;;;-0.67;100.00
1832;BME280;1680;48.106;11.708;2023-02-27T03:47:37;95704.88;;;-0.74;100.00
1832;BME280;1680;48.106;11.708;2023-02-27T03:50:05;95711.03;;;-0.67;100.00
1832;BME280;1680;48.106;11.708;2023-02-27T03:52:33;95716.50;;;-0.70;100.00
1832;BME280;1680;48.106;11.708;2023-02-27T03:55:07;95713.66;;;-0.59;100.00
1832;BME280;1680;48.106;11.708;2023-02-27T03:57:36;95720.72;;;-0.61;100.00
1832;BME280;1680;48.106;11.708;2023-02-27T04:00:05;95714.88;;;-0.71;100.00
1832;BME280;1680;48.106;11.708;2023-02-27T04:02:35;95714.13;;;-0.64;100.00
1832;BME280;1680;48.106;11.708;2023-02-27T04:05:03;95712.97;;;-0.69;100.00
1832;BME280;1680;48.106;11.708;2023-02-27T04:07:36;95727.47;;;-0.68;100.00
1832;BME280;1680;48.106;11.708;2023-02-27T04:10:37;95714.25;;;-0.65;100.00
1832;BME280;1680;48.106;11.708;2023-02-27T04:13:43;95717.31;;;-0.44;100.00
1832;BME280;1680;48.106;11.708;2023-02-27T04:16:36;95713.38;;;-0.56;100.00
1832;BME280;1680;48.106;11.708;2023-02-27T04:19:15;95721.69;;;-0.62;100.00
1832;BME280;1680;48.106;11.708;2023-02-27T04:21:50;95726.91;;;-0.54;100.00
1832;BME280;1680;48.106;11.708;2023-02-27T04:24:31;95723.03;;;-0.58;100.00
1832;BME280;1680;48.106;11.708;2023-02-27T04:27:07;95726.47;;;-0.67;100.00
1832;BME280;1680;48.106;11.708;2023-02-27T04:29:46;95719.56;;;-0.67;100.00
1832;BME280;1680;48.106;11.708;2023-02-27T04:32:20;95722.34;;;-0.60;100.00
1832;BME280;1680;48.106;11.708;2023-02-27T04:34:54;95668.31;;;-1.03;100.00
1832;BME280;1680;48.106;11.708;2023-02-27T04:37:26;95716.50;;;-0.70;100.00
1832;BME280;1680;48.106;11.708;2023-02-27T04:39:59;95728.09;;;-0.66;100.00
1832;BME280;1680;48.106;11.708;2023-02-27T04:42:33;95731.09;;;-0.53;100.00
1832;BME280;1680;48.106;11.708;2023-02-27T04:45:04;95726.25;;;-0.56;100.00
1832;BME280;1680;48.106;11.708;2023-02-27T04:47:35;95732.84;;;-0.54;100.00
1832;BME280;1680;48.106;11.708;2023-02-27T04:50:09;95726.56;;;-0.59;100.00
1832;BME280;1680;48.106;11.708;2023-02-27T04:52:42;95704.59;;;-0.71;100.00
1832;BME280;1680;48.106;11.708;2023-02-27T04:55:13;95720.72;;;-0.61;100.00
1832;BME280;1680;48.106;11.708;2023-02-27T04:57:47;95724.88;;;-0.68;100.00
1832;BME280;1680;48.106;11.708;2023-02-27T05:00:18;95721.28;;;-0.75;100.00
1832;BME280;1680;48.106;11.708;2023-02-27T05:02:51;95722.94;;;-0.66;100.00
1832;BME280;1680;48.106;11.708;2023-02-27T05:05:24;95722.94;;;-0.66;100.00
1832;BME280;1680;48.106;11.708;2023-02-27T05:07:56;95717.50;;;-0.63;100.00
1832;BME280;1680;48.106;11.708;2023-02-27T05:10:29;95713.19;;;-0.63;100.00
1832;BME280;1680;48.106;11.708;2023-02-27T05:13:02;95722.53;;;-0.62;100.00
1832;BME280;1680;48.106;11.708;2023-02-27T05:15:35;95714.22;;;-0.73;100.00
1832;BME280;1680;48.106;11.708;2023-02-27T05:18:05;95715.25;;;-0.84;100.00
1832;BME280;1680;48.106;11.708;2023-02-27T05:20:40;95689.25;;;-0.98;100.00
1832;BME280;1680;48.106;11.708;2023-02-27T05:23:14;95716.66;;;-0.89;100.00
1832;BME280;1680;48.106;11.708;2023-02-27T05:25:51;95725.34;;;-0.90;100.00
1832;BME280;1680;48.106;11.708;2023-02-27T05:28:29;95721.53;;;-0.86;100.00
1832;BME280;1680;48.106;11.708;2023-02-27T05:31:04;95723.44;;;-0.88;100.00
1832;BME280;1680;48.106;11.708;2023-02-27T05:33:37;95718.88;;;-0.77;100.00
1832;BME280;1680;48.106;11.708;2023-02-27T05:36:10;95717.31;;;-0.87;99.68
1832;BME280;1680;48.106;11.708;2023-02-27T05:38:43;95722.97;;;-0.84;100.00
1832;BME280;1680;48.106;11.708;2023-02-27T05:41:15;95715.50;;;-0.95;99.34
1832;BME280;1680;48.106;11.708;2023-02-27T05:43:48;95714.66;;;-0.95;99.95
1832;BME280;1680;48.106;11.708;2023-02-27T05:46:20;95719.69;;;-0.94;99.61
1832;BME280;1680;48.106;11.708;2023-02-27T05:48:51;95729.44;;;-0.97;100.00
1832;BME280;1680;48.106;11.708;2023-02-27T05:51:20;95719.09;;;-1.05;99.98
1832;BME280;1680;48.106;11.708;2023-02-27T05:53:53;95727.84;;;-0.98;99.82
1832;BME280;1680;48.106;11.708;2023-02-27T05:56:25;95723.72;;;-0.91;99.92
1832;BME280;1680;48.106;11.708;2023-02-27T05:58:59;95720.19;;;-0.90;100.00
1832;BME280;1680;48.106;11.708;2023-02-27T06:01:28;95724.00;;;-0.94;99.52
1832;BME280;1680;48.106;11.708;2023-02-27T06:03:56;95733.06;;;-0.90;99.67
1832;BME280;1680;48.106;11.708;2023-02-27T06:06:23;95726.81;;;-1.05;99.73
1832;BME280;1680;48.106;11.708;2023-02-27T06:08:51;95731.53;;;-1.18;100.00
1832;BME280;1680;48.106;11.708;2023-02-27T06:11:18;95730.63;;;-1.09;100.00
1832;BME280;1680;48.106;11.708;2023-02-27T06:13:45;95726.03;;;-1.05;100.00
1832;BME280;1680;48.106;11.708;2023-02-27T06:16:14;95736.88;;;-1.11;100.00
1832;BME280;1680;48.106;11.708;2023-02-27T06:18:42;95729.38;;;-1.05;100.00
1832;BME280;1680;48.106;11.708;2023-02-27T06:21:11;95734.31;;;-0.94;99.36
1832;BME280;1680;48.106;11.708;2023-02-27T06:23:38;95738.44;;;-1.01;99.46
1832;BME280;1680;48.106;11.708;2023-02-27T06:26:06;95743.03;;;-1.04;99.62
1832;BME280;1680;48.106;11.708;2023-02-27T06:28:38;95738.44;;;-1.01;99.64
1832;BME280;1680;48.106;11.708;2023-02-27T06:31:05;95744.31;;;-0.91;100.00
1832;BME280;1680;48.106;11.708;2023-02-27T06:33:34;95750.91;;;-0.89;98.80
1832;BME280;1680;48.106;11.708;2023-02-27T06:36:01;95749.16;;;-0.88;98.97
1832;BME280;1680;48.106;11.708;2023-02-27T06:38:28;95753.19;;;-0.86;98.04
1832;BME280;1680;48.106;11.708;2023-02-27T06:40:56;95754.81;;;-0.85;97.68
1832;BME280;1680;48.106;11.708;2023-02-27T06:43:23;95756.34;;;-0.74;97.37
1832;BME280;1680;48.106;11.708;2023-02-27T06:45:52;95745.56;;;-0.78;97.33
1832;BME280;1680;48.106;11.708;2023-02-27T06:48:20;95761.34;;;-0.73;98.02
1832;BME280;1680;48.106;11.708;2023-02-27T06:50:51;95754.53;;;-0.82;98.86
1832;BME280;1680;48.106;11.708;2023-02-27T06:53:19;95756.00;;;-0.62;97.28
1832;BME280;1680;48.106;11.708;2023-02-27T06:55:46;95751.44;;;-0.68;97.81
1832;BME280;1680;48.106;11.708;2023-02-27T06:58:14;95749.50;;;-0.66;97.90
1832;BME280;1680;48.106;11.708;2023-02-27T07:00:42;95750.00;;;-0.62;97.17
1832;BME280;1680;48.106;11.708;2023-02-27T07:03:09;95763.56;;;-0.60;97.75
1832;BME280;1680;48.106;11.708;2023-02-27T07:05:37;95751.47;;;-0.60;96.99
1832;BME280;1680;48.106;11.708;2023-02-27T07:08:08;95759.94;;;-0.67;96.83
1832;BME280;1680;48.106;11.708;2023-02-27T07:10:35;95752.88;;;-0.48;97.62
1832;BME280;1680;48.106;11.708;2023-02-27T07:13:03;95751.38;;;-0.33;96.20
1832;BME280;1680;48.106;11.708;2023-02-27T07:15:30;95726.19;;;-0.39;95.38
1832;BME280;1680;48.106;11.708;2023-02-27T07:17:58;95767.53;;;-0.23;94.66
1832;BME280;1680;48.106;11.708;2023-02-27T07:20:25;95758.34;;;-0.25;95.60
1832;BME280;1680;48.106;11.708;2023-02-27T07:22:52;95761.97;;;-0.10;94.04
1832;BME280;1680;48.106;11.708;2023-02-27T07:25:21;95756.16;;;-0.12;94.30
1832;BME280;1680;48.106;11.708;2023-02-27T07:27:48;95759.59;;;-0.04;93.77
1832;BME280;1680;48.106;11.708;2023-02-27T07:30:15;95762.06;;;0.05;93.84
1832;BME280;1680;48.106;11.708;2023-02-27T07:32:43;95764.78;;;0.04;93.43
1832;BME280;1680;48.106;11.708;2023-02-27T07:35:12;95760.47;;;0.04;93.30
1832;BME280;1680;48.106;11.708;2023-02-27T07:37:40;95772.38;;;0.05;94.22
1832;BME280;1680;48.106;11.708;2023-02-27T07:40:08;95775.38;;;0.26;95.12
1832;BME280;1680;48.106;11.708;2023-02-27T07:42:37;95769.06;;;0.21;92.99
1832;BME280;1680;48.106;11.708;2023-02-27T07:45:05;95775.91;;;0.30;92.73
1832;BME280;1680;48.106;11.708;2023-02-27T07:47:33;95734.56;;;0.14;90.67
1832;BME280;1680;48.106;11.708;2023-02-27T07:50:00;95778.78;;;0.27;90.36
1832;BME280;1680;48.106;11.708;2023-02-27T07:52:28;95777.47;;;0.23;91.54
1832;BME280;1680;48.106;11.708;2023-02-27T07:54:55;95780.59;;;0.34;91.16
1832;BME280;1680;48.106;11.708;2023-02-27T07:57:23;95771.88;;;0.35;91.54
1832;BME280;1680;48.106;11.708;2023-02-27T07:59:51;95783.34;;;0.41;90.25
1832;BME280;1680;48.106;11.708;2023-02-27T08:02:18;95772.84;;;0.34;91.66
1832;BME280;1680;48.106;11.708;2023-02-27T08:04:45;95780.59;;;0.42;90.32
1832;BME280;1680;48.106;11.708;2023-02-27T08:07:13;95792.25;;;0.46;90.82
1832;BME280;1680;48.106;11.708;2023-02-27T08:09:40;95794.00;;;0.46;91.82
1832;BME280;1680;48.106;11.708;2023-02-27T08:12:07;95798.78;;;0.66;90.52
1832;BME280;1680;48.106;11.708;2023-02-27T08:14:34;95789.44;;;0.73;89.62
1832;BME280;1680;48.106;11.708;2023-02-27T08:17:03;95732.59;;;0.49;89.74
1832;BME280;1680;48.106;11.708;2023-02-27T08:19:30;95791.41;;;0.79;89.13
1832;BME280;1680;48.106;11.708;2023-02-27T08:21:57;95800.63;;;0.90;88.36
1832;BME280;1680;48.106;11.708;2023-02-27T08:24:24;95792.72;;;0.91;87.22
1832;BME280;1680;48.106;11.708;2023-02-27T08:26:52;95791.09;;;0.82;89.38
1832;BME280;1680;48.106;11.708;2023-02-27T08:29:19;95794.34;;;0.92;87.68
1832;BME280;1680;48.106;11.708;2023-02-27T08:31:46;95803.66;;;0.85;87.69
1832;BME280;1680;48.106;11.708;2023-02-27T08:34:15;95798.53;;;1.01;87.98
1832;BME280;1680;48.106;11.708;2023-02-27T08:36:42;95797.88;;;0.91;88.53
1832;BME280;1680;48.106;11.708;2023-02-27T08:39:09;95800.16;;;0.94;86.58
1832;BME280;1680;48.106;11.708;2023-02-27T08:41:37;95804.41;;;1.11;86.62
1832;BME280;1680;48.106;11.708;2023-02-27T08:44:04;95810.50;;;1.02;87.82
1832;BME280;1680;48.106;11.708;2023-02-27T08:46:31;95778.53;;;0.95;85.42
1832;BME280;1680;48.106;11.708;2023-02-27T08:48:58;95805.00;;;0.97;86.07
1832;BME280;1680;48.106;11.708;2023-02-27T08:51:27;95759.50;;;0.96;84.58
1832;BME280;1680;48.106;11.708;2023-02-27T08:53:54;95818.78;;;1.29;84.91
1832;BME280;1680;48.106;11.708;2023-02-27T08:56:23;95822.81;;;1.32;84.23
1832;BME280;1680;48.106;11.708;2023-02-27T08:58:50;95812.97;;;1.19;83.41
1832;BME280;1680;48.106;11.708;2023-02-27T09:01:18;95827.94;;;1.16;83.23
1832;BME280;1680;48.106;11.708;2023-02-27T09:03:45;95835.03;;;1.14;85.43
1832;BME280;1680;48.106;11.708;2023-02-27T09:06:13;95823.75;;;1.15;85.25
1832;BME280;1680;48.106;11.708;2023-02-27T09:08:41;95827.34;;;1.30;84.78
1832;BME280;1680;48.106;11.708;2023-02-27T09:11:08;95822.78;;;1.16;83.57
1832;BME280;1680;48.106;11.708;2023-02-27T09:13:36;95839.41;;;1.21;83.44
1832;BME280;1680;48.106;11.708;2023-02-27T09:16:04;95829.56;;;1.17;83.85
1832;BME280;1680;48.106;11.708;2023-02-27T09:18:31;95838.63;;;1.29;84.94
1832;BME280;1680;48.106;11.708;2023-02-27T09:20:59;95834.81;;;1.41;84.25
1832;BME280;1680;48.106;11.708;2023-02-27T09:23:26;95840.75;;;1.41;85.00
1832;BME280;1680;48.106;11.708;2023-02-27T09:25:54;95842.78;;;1.14;84.81
1832;BME280;1680;48.106;11.708;2023-02-27T09:28:22;95836.00;;;0.97;85.30
1832;BME280;1680;48.106;11.708;2023-02-27T09:30:49;95836.00;;;0.64;88.17
1832;BME280;1680;48.106;11.708;2023-02-27T09:33:16;95852.44;;;0.63;87.55
1832;BME280;1680;48.106;11.708;2023-02-27T09:35:43;95857.09;;;0.51;91.55
1832;BME280;1680;48.106;11.708;2023-02-27T09:38:10;95858.75;;;0.68;91.14
1832;BME280;1680;48.106;11.708;2023-02-27T09:40:40;95864.31;;;0.81;91.83
1832;BME280;1680;48.106;11.708;2023-02-27T09:43:15;95861.94;;;0.95;91.13
1832;BME280;1680;48.106;11.708;2023-02-27T09:45:45;95850.19;;;1.01;89.93
1832;BME280;1680;48.106;11.708;2023-02-27T09:48:21;95864.00;;;1.41;87.09
1832;BME280;1680;48.106;11.708;2023-02-27T09:50:51;95873.25;;;1.52;85.36
1832;BME280;1680;48.106;11.708;2023-02-27T09:53:22;95865.81;;;1.49;84.75
1832;BME280;1680;48.106;11.708;2023-02-27T09:55:52;95869.38;;;1.64;81.54
1832;BME280;1680;48.106;11.708;2023-02-27T09:58:30;95878.94;;;1.79;79.65
1832;BME280;1680;48.106;11.708;2023-02-27T10:01:07;95886.03;;;1.61;78.10
1832;BME280;1680;48.106;11.708;2023-02-27T10:03:51;95879.41;;;1.75;79.19
1832;BME280;1680;48.106;11.708;2023-02-27T10:06:24;95879.25;;;1.76;78.86
1832;BME280;1680;48.106;11.708;2023-02-27T10:09:00;95878.75;;;1.88;77.13
1832;BME280;1680;48.106;11.708;2023-02-27T10:11:38;95851.91;;;1.50;77.02
1832;BME280;1680;48.106;11.708;2023-02-27T10:14:18;95880.38;;;1.74;73.69
1832;BME280;1680;48.106;11.708;2023-02-27T10:16:48;95867.13;;;1.69;72.45
1832;BME280;1680;48.106;11.708;2023-02-27T10:19:24;95891.38;;;1.84;72.08
1832;BME280;1680;48.106;11.708;2023-02-27T10:21:54;95892.94;;;1.53;72.45
1832;BME280;1680;48.106;11.708;2023-02-27T10:24:25;95897.34;;;1.84;70.01
1832;BME280;1680;48.106;11.708;2023-02-27T10:26:56;95899.28;;;1.82;68.81
1832;BME280;1680;48.106;11.708;2023-02-27T10:29:27;95893.63;;;1.79;70.21
1832;BME280;1680;48.106;11.708;2023-02-27T10:32:01;95893.63;;;1.94;69.80
1832;BME280;1680;48.106;11.708;2023-02-27T10:34:29;95896.56;;;1.99;69.33
1832;BME280;1680;48.106;11.708;2023-02-27T10:36:59;95887.16;;;1.75;70.36
1832;BME280;1680;48.106;11.708;2023-02-27T10:39:29;95899.78;;;2.09;68.76
1832;BME280;1680;48.106;11.708;2023-02-27T10:42:02;95906.56;;;2.10;68.08
1832;BME280;1680;48.106;11.708;2023-02-27T10:44:32;95905.59;;;2.03;68.76
1832;BME280;1680;48.106;11.708;2023-02-27T10:47:00;95898.31;;;1.75;67.62
1832;BME280;1680;48.106;11.708;2023-02-27T10:49:30;95908.81;;;1.82;69.25
1832;BME280;1680;48.106;11.708;2023-02-27T10:52:08;95909.78;;;2.04;68.43
1832;BME280;1680;48.106;11.708;2023-02-27T10:54:35;95907.88;;;2.14;67.91
1832;BME280;1680;48.106;11.708;2023-02-27T10:57:06;95906.25;;;2.05;67.79
1832;BME280;1680;48.106;11.708;2023-02-27T10:59:50;95908.50;;;2.24;67.70
1832;BME280;1680;48.106;11.708;2023-02-27T11:02:24;95899.44;;;2.20;69.27
1832;BME280;1680;48.106;11.708;2023-02-27T11:04:54;95910.75;;;2.35;68.68
1832;BME280;1680;48.106;11.708;2023-02-27T11:07:30;95892.66;;;2.27;69.39
1832;BME280;1680;48.106;11.708;2023-02-27T11:10:04;95910.78;;;2.43;69.91
1832;BME280;1680;48.106;11.708;2023-02-27T11:12:48;95913.50;;;2.42;69.22
1832;BME280;1680;48.106;11.708;2023-02-27T11:15:26;95911.56;;;2.44;67.99
1832;BME280;1680;48.106;11.708;2023-02-27T11:17:53;95907.88;;;2.22;67.14
1832;BME280;1680;48.106;11.708;2023-02-27T11:20:31;95914.16;;;1.96;68.38
1832;BME280;1680;48.106;11.708;2023-02-27T11:23:05;95915.63;;;2.14;67.84
1832;BME280;1680;48.106;11.708;2023-02-27T11:25:32;95921.44;;;1.92;69.31
1832;BME280;1680;48.106;11.708;2023-02-27T11:28:21;95910.28;;;1.84;65.51
1832;BME280;1680;48.106;11.708;2023-02-27T11:30:57;95901.72;;;1.91;68.97
1832;BME280;1680;48.106;11.708;2023-02-27T11:33:27;95888.47;;;1.94;67.89
1832;BME280;1680;48.106;11.708;2023-02-27T11:35:56;95906.88;;;2.07;67.23
1832;BME280;1680;48.106;11.708;2023-02-27T11:38:25;95889.25;;;1.95;67.59
1832;BME280;1680;48.106;11.708;2023-02-27T11:40:54;95900.28;;;2.05;67.92
1832;BME280;1680;48.106;11.708;2023-02-27T11:43:24;95895.09;;;2.05;65.82
1832;BME280;1680;48.106;11.708;2023-02-27T11:45:56;95894.44;;;1.95;68.95
1832;BME280;1680;48.106;11.708;2023-02-27T11:48:27;95896.06;;;1.96;67.29
1832;BME280;1680;48.106;11.708;2023-02-27T11:51:14;95906.09;;;1.99;67.63
1832;BME280;1680;48.106;11.708;2023-02-27T11:56:51;95902.34;;;1.78;69.95
1832;BME280;1680;48.106;11.708;2023-02-27T11:59:26;95898.78;;;1.63;70.87
1832;BME280;1680;48.106;11.708;2023-02-27T12:02:02;95895.53;;;1.61;72.15
1832;BME280;1680;48.106;11.708;2023-02-27T12:04:40;95904.44;;;1.82;71.42
1832;BME280;1680;48.106;11.708;2023-02-27T12:07:16;95889.22;;;1.47;74.26
1832;BME280;1680;48.106;11.708;2023-02-27T12:09:49;95890.75;;;1.97;74.06
1832;BME280;1680;48.106;11.708;2023-02-27T12:12:21;95900.06;;;1.75;74.56
1832;BME280;1680;48.106;11.708;2023-02-27T12:14:57;95909.13;;;1.79;73.54
1832;BME280;1680;48.106;11.708;2023-02-27T12:17:30;95899.75;;;1.78;73.29
1832;BME280;1680;48.106;11.708;2023-02-27T12:20:21;95902.63;;;1.59;74.91
1832;BME280;1680;48.106;11.708;2023-02-27T12:22:52;95897.00;;;1.71;73.07
1832;BME280;1680;48.106;11.708;2023-02-27T12:25:28;95842.56;;;1.41;72.88
1832;BME280;1680;48.106;11.708;2023-02-27T12:28:02;95901.38;;;1.71;73.72
1832;BME280;1680;48.106;11.708;2023-02-27T12:30:37;95894.44;;;1.79;72.10
1832;BME280;1680;48.106;11.708;2023-02-27T12:33:15;95873.25;;;1.76;70.07
1832;BME280;1680;48.106;11.708;2023-02-27T12:35:45;95889.78;;;1.98;71.28
1832;BME280;1680;48.106;11.708;2023-02-27T12:38:17;95888.78;;;1.91;71.76
1832;BME280;1680;48.106;11.708;2023-02-27T12:40:54;95901.06;;;2.05;71.65
1832;BME280;1680;48.106;11.708;2023-02-27T12:43:26;95889.94;;;2.21;69.90
1832;BME280;1680;48.106;11.708;2023-02-27T12:46:11;95894.13;;;1.98;70.14
1832;BME280;1680;48.106;11.708;2023-02-27T12:48:53;95892.34;;;2.06;70.06
1832;BME280;1680;48.106;11.708;2023-02-27T12:51:33;95902.06;;;2.12;68.24
1832;BME280;1680;48.106;11.708;2023-02-27T12:54:19;95911.75;;;1.94;69.80
1832;BME280;1680;48.106;11.708;2023-02-27T12:57:05;95900.75;;;1.92;68.03
1832;BME280;1680;48.106;11.708;2023-02-27T12:59:50;95901.06;;;1.82;70.44
1832;BME280;1680;48.106;11.708;2023-02-27T13:02:32;95897.50;;;2.06;69.49
1832;BME280;1680;48.106;11.708;2023-02-27T13:05:14;95895.44;;;1.94;69.85
1832;BME280;1680;48.106;11.708;2023-02-27T13:07:51;95896.22;;;2.02;70.09
1832;BME280;1680;48.106;11.708;2023-02-27T13:10:25;95893.00;;;2.00;69.31
1832;BME280;1680;48.106;11.708;2023-02-27T13:13:00;95816.06;;;1.63;67.58
1832;BME280;1680;48.106;11.708;2023-02-27T13:15:33;95905.59;;;2.11;68.79
1832;BME280;1680;48.106;11.708;2023-02-27T13:18:24;95903.00;;;1.88;70.37
1832;BME280;1680;48.106;11.708;2023-02-27T13:20:59;95900.09;;;1.90;71.45
1832;BME280;1680;48.106;11.708;2023-02-27T13:23:38;95895.06;;;1.73;73.12
1832;BME280;1680;48.106;11.708;2023-02-27T13:26:17;95909.75;;;1.57;74.02
1832;BME280;1680;48.106;11.708;2023-02-27T13:28:47;95902.31;;;1.62;74.32
1832;BME280;1680;48.106;11.708;2023-02-27T13:31:22;95898.50;;;1.97;74.42
1832;BME280;1680;48.106;11.708;2023-02-27T13:33:58;95879.75;;;1.72;74.71
1832;BME280;1680;48.106;11.708;2023-02-27T13:36:36;95908.34;;;2.02;74.56
1832;BME280;1680;48.106;11.708;2023-02-27T13:39:36;95902.88;;;2.05;72.63
1832;BME280;1680;48.106;11.708;2023-02-27T13:42:06;95902.06;;;1.96;71.45
1832;BME280;1680;48.106;11.708;2023-02-27T13:44:52;95899.78;;;1.86;72.93
1832;BME280;1680;48.106;11.708;2023-02-27T13:47:41;95901.41;;;1.94;73.67
1832;BME280;1680;48.106;11.708;2023-02-27T13:53:19;95883.59;;;1.76;74.16
1832;BME280;1680;48.106;11.708;2023-02-27T13:55:51;95904.63;;;1.81;73.92